Weather reports worldwide

Advertisment
Santon Downham, United Kingdom (99118): temperature & dewpoint: 13.04.2019 00:00:00 - 19.04.2019 00:00:00 (BST)Santon Downham, United Kingdom (99118): temperature -20cm & temperature -100cm: 13.04.2019 00:00:00 - 19.04.2019 00:00:00 (BST)Santon Downham, United Kingdom (99118): precipitation: 13.04.2019 00:00:00 - 19.04.2019 00:00:00 (BST)
Date & Time tt [°C] td [°C] tt -20cm [°C] tt -100cm [°C] rr [mm]
19.04.2019 00:00:00 7,3 5,5 - - 0,0
18.04.2019 23:00:00 8,1 5,7 - - 0,0
18.04.2019 22:00:00 10,7 5,4 - - 0,0
18.04.2019 21:00:00 12,5 5,8 - - 0,0
18.04.2019 20:00:00 14,6 6,5 - - 0,0
18.04.2019 19:00:00 17,0 6,5 - - -
18.04.2019 18:00:00 18,1 6,3 - - 0,0
18.04.2019 17:00:00 18,5 5,1 - - 0,0
18.04.2019 16:00:00 19,1 4,3 - - 0,0
18.04.2019 15:00:00 19,4 5,2 - - 0,0
18.04.2019 14:00:00 20,0 5,8 - - 0,0
18.04.2019 13:00:00 19,8 6,8 - - 0,0
18.04.2019 12:00:00 19,7 7,5 - - 0,0
18.04.2019 11:00:00 18,3 9,4 - - 0,0
18.04.2019 10:00:00 16,1 9,5 9,0 9,0 0,0
18.04.2019 09:00:00 13,8 9,8 - - 0,0
18.04.2019 08:00:00 10,0 9,9 - - 0,0
18.04.2019 07:00:00 7,4 7,2 - - 0,0
18.04.2019 06:00:00 7,1 6,9 - - 0,0
18.04.2019 05:00:00 7,2 6,9 - - 0,0
18.04.2019 04:00:00 7,4 7,1 - - 0,0
18.04.2019 03:00:00 7,3 7,2 - - 0,0
18.04.2019 02:00:00 6,8 6,6 - - 0,0
18.04.2019 01:00:00 4,9 4,5 - - 0,0
18.04.2019 00:00:00 5,0 4,2 - - 0,0
17.04.2019 23:00:00 6,6 5,3 - - 0,0
17.04.2019 22:00:00 8,6 6,8 - - 0,0
17.04.2019 21:00:00 8,9 6,2 - - 0,0
17.04.2019 20:00:00 11,3 6,7 - - 0,0
17.04.2019 19:00:00 13,3 7,3 - - 0,0
17.04.2019 18:00:00 14,9 7,8 - - 0,0
17.04.2019 17:00:00 16,6 7,5 - - 0,0
17.04.2019 16:00:00 17,2 7,2 - - 0,0
17.04.2019 15:00:00 17,5 8,0 - - 0,0
17.04.2019 14:00:00 17,5 8,2 - - 0,0
17.04.2019 13:00:00 17,4 7,8 - - 0,0
17.04.2019 12:00:00 16,7 9,4 - - 0,0
17.04.2019 11:00:00 15,6 9,1 - - 0,0
17.04.2019 10:00:00 10,9 9,4 8,4 8,9 0,0
17.04.2019 09:00:00 5,2 5,0 - - 0,0
17.04.2019 08:00:00 2,9 2,7 - - 0,0
17.04.2019 07:00:00 0,7 0,4 - - 0,0
17.04.2019 06:00:00 0,4 -0,1 - - 0,0
17.04.2019 05:00:00 1,2 0,8 - - 0,0
17.04.2019 04:00:00 2,9 2,5 - - 0,0
17.04.2019 03:00:00 3,6 3,3 - - 0,0
17.04.2019 02:00:00 3,3 2,5 - - 0,0
17.04.2019 01:00:00 4,6 3,5 - - 0,0
17.04.2019 00:00:00 6,3 5,1 - - 0,0
16.04.2019 23:00:00 7,3 5,4 - - 0,0
16.04.2019 22:00:00 8,2 5,2 - - 0,0
16.04.2019 21:00:00 9,1 4,8 - - 0,0
16.04.2019 20:00:00 10,3 4,7 - - 0,0
16.04.2019 19:00:00 11,6 4,6 - - 0,0
16.04.2019 18:00:00 12,3 5,1 - - 0,0
16.04.2019 17:00:00 12,8 5,4 - - 0,0
16.04.2019 16:00:00 14,0 5,6 - - 0,0
16.04.2019 15:00:00 14,5 5,8 - - 0,0
16.04.2019 14:00:00 14,2 5,6 - - 0,0
16.04.2019 13:00:00 14,0 5,9 - - 0,0
16.04.2019 12:00:00 13,5 5,8 - - 0,0
16.04.2019 11:00:00 13,2 6,0 - - 0,0
16.04.2019 10:00:00 12,2 5,9 8,0 8,9 0,0
16.04.2019 09:00:00 11,3 5,8 - - 0,0
16.04.2019 08:00:00 8,5 8,3 - - 0,0
16.04.2019 07:00:00 2,7 2,6 - - 0,0
16.04.2019 06:00:00 1,7 1,5 - - 0,0
16.04.2019 05:00:00 1,5 1,2 - - 0,0
16.04.2019 04:00:00 1,4 1,1 - - 0,0
16.04.2019 03:00:00 1,4 1,2 - - 0,0
16.04.2019 02:00:00 1,5 1,2 - - 0,0
16.04.2019 01:00:00 1,7 1,4 - - 0,0
16.04.2019 00:00:00 1,7 1,3 - - 0,0
15.04.2019 23:00:00 2,2 1,5 - - 0,0
15.04.2019 22:00:00 3,2 1,9 - - 0,0
15.04.2019 21:00:00 5,7 3,7 - - 0,0
15.04.2019 20:00:00 8,1 4,5 - - 0,0
15.04.2019 19:00:00 9,6 3,6 - - 0,0
15.04.2019 18:00:00 10,1 2,8 - - 0,0
15.04.2019 17:00:00 10,1 2,9 - - 0,0
15.04.2019 16:00:00 10,5 2,9 - - 0,0
15.04.2019 15:00:00 11,3 4,0 - - 0,0
15.04.2019 14:00:00 11,2 3,4 - - 0,0
15.04.2019 13:00:00 11,0 2,5 - - 0,0
15.04.2019 12:00:00 10,1 1,9 - - 0,0
15.04.2019 11:00:00 10,3 2,6 - - 0,0
15.04.2019 10:00:00 9,1 2,9 7,7 9,0 0,0
15.04.2019 09:00:00 8,5 4,2 - - 0,0
15.04.2019 08:00:00 3,7 3,5 - - 0,0
15.04.2019 07:00:00 -1,4 -1,6 - - 0,0
15.04.2019 06:00:00 -1,9 -2,2 - - 0,0
15.04.2019 05:00:00 -2,3 -2,7 - - 0,0
15.04.2019 04:00:00 -1,9 -2,2 - - 0,0
15.04.2019 03:00:00 -2,4 -2,8 - - 0,0
15.04.2019 02:00:00 -2,4 -3,1 - - 0,0
15.04.2019 01:00:00 -1,9 -2,5 - - 0,0
15.04.2019 00:00:00 -1,1 -1,9 - - 0,0
14.04.2019 23:00:00 0,1 -0,8 - - 0,0
14.04.2019 22:00:00 1,2 -0,7 - - 0,0
14.04.2019 21:00:00 2,4 -0,7 - - 0,0
14.04.2019 20:00:00 5,1 -0,1 - - 0,0
14.04.2019 19:00:00 6,6 -0,1 - - 0,0
14.04.2019 18:00:00 7,5 -1,5 - - 0,0
14.04.2019 17:00:00 8,2 -1,9 - - 0,0
14.04.2019 16:00:00 8,0 -1,0 - - 0,0
14.04.2019 15:00:00 7,0 -1,1 - - 0,0
14.04.2019 14:00:00 9,1 0,8 - - 0,0
14.04.2019 13:00:00 7,1 0,1 - - 0,0
14.04.2019 12:00:00 7,9 -1,5 - - 0,0
14.04.2019 11:00:00 7,8 -1,1 - - 0,0
14.04.2019 10:00:00 8,3 -1,0 8,0 9,0 0,0
14.04.2019 09:00:00 6,3 0,4 - - 0,0
14.04.2019 08:00:00 -0,6 -0,9 - - 0,0
14.04.2019 07:00:00 -3,8 -4,4 - - 0,0
14.04.2019 06:00:00 -4,5 -5,2 - - 0,0
14.04.2019 05:00:00 -4,2 -5,0 - - 0,0
14.04.2019 04:00:00 -3,9 -4,6 - - 0,0
14.04.2019 03:00:00 -3,2 -3,9 - - 0,0
14.04.2019 02:00:00 -2,6 -3,5 - - 0,0
14.04.2019 01:00:00 -1,1 -2,3 - - 0,0
14.04.2019 00:00:00 -1,1 -2,0 - - 0,0
13.04.2019 23:00:00 -1,1 -2,2 - - 0,0
13.04.2019 22:00:00 -1,1 -3,4 - - 0,0
13.04.2019 21:00:00 2,0 -1,8 - - 0,0
13.04.2019 20:00:00 4,6 -0,8 - - 0,0
13.04.2019 19:00:00 5,9 -2,4 - - 0,0
13.04.2019 18:00:00 7,0 -1,7 - - 0,0
13.04.2019 17:00:00 7,8 -3,6 - - 0,0
13.04.2019 16:00:00 8,7 -1,2 - - 0,0
13.04.2019 15:00:00 9,1 -1,9 - - 0,0
13.04.2019 14:00:00 9,0 1,6 - - 0,0
13.04.2019 13:00:00 6,4 -2,2 - - 0,0
13.04.2019 12:00:00 8,8 -1,5 - - 0,0
13.04.2019 11:00:00 8,6 -1,4 - - 0,0
13.04.2019 10:00:00 7,1 -1,5 8,0 9,2 0,0
13.04.2019 09:00:00 5,8 2,0 - - 0,2
13.04.2019 08:00:00 -0,8 -1,1 - - 0,0
13.04.2019 07:00:00 -2,8 -3,3 - - 0,0
13.04.2019 06:00:00 -3,2 -3,7 - - 0,0
13.04.2019 05:00:00 -3,2 -3,7 - - 0,0
13.04.2019 04:00:00 -3,5 -4,0 - - 0,0
13.04.2019 03:00:00 -4,1 -4,9 - - 0,0
13.04.2019 02:00:00 -3,4 -4,1 - - 0,0
13.04.2019 01:00:00 -2,7 -3,6 - - 0,0
13.04.2019 00:00:00 -1,5 -2,4 - - 0,0

tt = temperature
td = dewpoint
tt -20cm = temperature -20cm
tt -100cm = temperature -100cm
rr = precipitation

Next stations